sensor_id;sensor_type;location;lat;lon;timestamp;pressure;altitude;pressure_sealevel;temperature;humidity
49779;BME280;36217;60.232;24.776;2022-10-28T00:01:13;101143.20;;;9.39;100.00
49779;BME280;36217;60.232;24.776;2022-10-28T00:03:42;101141.93;;;9.74;100.00
49779;BME280;36217;60.232;24.776;2022-10-28T00:06:11;101141.66;;;9.75;100.00
49779;BME280;36217;60.232;24.776;2022-10-28T00:08:39;101141.33;;;9.79;100.00
49779;BME280;36217;60.232;24.776;2022-10-28T00:11:07;101141.00;;;9.79;100.00
49779;BME280;36217;60.232;24.776;2022-10-28T00:13:35;101142.99;;;9.87;100.00
49779;BME280;36217;60.232;24.776;2022-10-28T00:16:05;101135.91;;;9.61;100.00
49779;BME280;36217;60.232;24.776;2022-10-28T00:18:32;101130.49;;;9.61;100.00
49779;BME280;36217;60.232;24.776;2022-10-28T00:21:00;101129.24;;;10.08;100.00
49779;BME280;36217;60.232;24.776;2022-10-28T00:23:28;101125.97;;;9.72;100.00
49779;BME280;36217;60.232;24.776;2022-10-28T00:26:03;101124.81;;;9.80;100.00
49779;BME280;36217;60.232;24.776;2022-10-28T00:28:30;101121.39;;;9.86;100.00
49779;BME280;36217;60.232;24.776;2022-10-28T00:31:02;101116.20;;;9.81;100.00
49779;BME280;36217;60.232;24.776;2022-10-28T00:33:29;101118.49;;;9.54;100.00
49779;BME280;36217;60.232;24.776;2022-10-28T00:35:56;101117.38;;;9.86;100.00
49779;BME280;36217;60.232;24.776;2022-10-28T00:38:32;101117.28;;;9.60;100.00
49779;BME280;36217;60.232;24.776;2022-10-28T00:40:59;101114.54;;;9.75;100.00
49779;BME280;36217;60.232;24.776;2022-10-28T00:43:35;101113.17;;;9.81;100.00
49779;BME280;36217;60.232;24.776;2022-10-28T00:46:04;101114.48;;;9.54;100.00
49779;BME280;36217;60.232;24.776;2022-10-28T00:48:33;101109.83;;;9.54;100.00
49779;BME280;36217;60.232;24.776;2022-10-28T00:51:00;101109.00;;;9.60;100.00
49779;BME280;36217;60.232;24.776;2022-10-28T00:53:28;101108.10;;;9.73;100.00
49779;BME280;36217;60.232;24.776;2022-10-28T00:55:58;101100.62;;;9.55;100.00
49779;BME280;36217;60.232;24.776;2022-10-28T00:58:26;101103.85;;;9.84;100.00
49779;BME280;36217;60.232;24.776;2022-10-28T01:00:54;101108.25;;;9.77;100.00
49779;BME280;36217;60.232;24.776;2022-10-28T01:03:22;101113.47;;;9.48;100.00
49779;BME280;36217;60.232;24.776;2022-10-28T01:05:49;101112.38;;;9.97;100.00
49779;BME280;36217;60.232;24.776;2022-10-28T01:08:17;101109.35;;;9.49;100.00
49779;BME280;36217;60.232;24.776;2022-10-28T01:11:03;101109.45;;;9.76;100.00
49779;BME280;36217;60.232;24.776;2022-10-28T01:13:41;101110.14;;;9.60;100.00
49779;BME280;36217;60.232;24.776;2022-10-28T01:16:20;101103.29;;;9.69;100.00
49779;BME280;36217;60.232;24.776;2022-10-28T01:19:04;101097.48;;;9.76;100.00
49779;BME280;36217;60.232;24.776;2022-10-28T01:21:52;101098.95;;;9.71;100.00
49779;BME280;36217;60.232;24.776;2022-10-28T01:24:41;101097.21;;;9.56;100.00
49779;BME280;36217;60.232;24.776;2022-10-28T01:29:45;101092.39;;;9.56;100.00
49779;BME280;36217;60.232;24.776;2022-10-28T01:32:17;101089.81;;;9.72;100.00
49779;BME280;36217;60.232;24.776;2022-10-28T01:34:58;101082.66;;;9.74;100.00
49779;BME280;36217;60.232;24.776;2022-10-28T01:37:33;101075.61;;;9.56;100.00
49779;BME280;36217;60.232;24.776;2022-10-28T01:40:05;101071.75;;;9.64;100.00
49779;BME280;36217;60.232;24.776;2022-10-28T01:42:39;101075.97;;;9.40;100.00
49779;BME280;36217;60.232;24.776;2022-10-28T01:45:13;101084.68;;;9.44;100.00
49779;BME280;36217;60.232;24.776;2022-10-28T01:47:45;101089.76;;;9.47;100.00
49779;BME280;36217;60.232;24.776;2022-10-28T01:50:18;101085.37;;;9.99;100.00
49779;BME280;36217;60.232;24.776;2022-10-28T01:52:49;101089.50;;;9.65;100.00
49779;BME280;36217;60.232;24.776;2022-10-28T01:55:21;101088.94;;;9.97;100.00
49779;BME280;36217;60.232;24.776;2022-10-28T01:57:50;101090.74;;;9.66;100.00
49779;BME280;36217;60.232;24.776;2022-10-28T02:00:19;101092.84;;;9.69;100.00
49779;BME280;36217;60.232;24.776;2022-10-28T02:02:48;101090.50;;;9.53;100.00
49779;BME280;36217;60.232;24.776;2022-10-28T02:05:51;101094.88;;;9.57;100.00
49779;BME280;36217;60.232;24.776;2022-10-28T02:08:29;101095.73;;;9.83;100.00
49779;BME280;36217;60.232;24.776;2022-10-28T02:11:10;101089.29;;;9.62;100.00
49779;BME280;36217;60.232;24.776;2022-10-28T02:13:49;101081.27;;;9.62;100.00
49779;BME280;36217;60.232;24.776;2022-10-28T02:16:23;101076.05;;;9.95;100.00
49779;BME280;36217;60.232;24.776;2022-10-28T02:18:59;101079.42;;;9.44;100.00
49779;BME280;36217;60.232;24.776;2022-10-28T02:21:34;101076.75;;;9.72;100.00
49779;BME280;36217;60.232;24.776;2022-10-28T02:24:20;101074.82;;;9.66;100.00
49779;BME280;36217;60.232;24.776;2022-10-28T02:26:53;101075.17;;;9.97;100.00
49779;BME280;36217;60.232;24.776;2022-10-28T02:29:28;101067.17;;;9.95;100.00
49779;BME280;36217;60.232;24.776;2022-10-28T02:31:58;101061.37;;;9.57;100.00
49779;BME280;36217;60.232;24.776;2022-10-28T02:34:30;101056.46;;;9.67;100.00
49779;BME280;36217;60.232;24.776;2022-10-28T02:37:03;101059.88;;;10.04;100.00
49779;BME280;36217;60.232;24.776;2022-10-28T02:39:34;101074.48;;;9.71;100.00
49779;BME280;36217;60.232;24.776;2022-10-28T02:42:06;101075.41;;;9.68;100.00
49779;BME280;36217;60.232;24.776;2022-10-28T02:44:39;101073.95;;;9.89;100.00
49779;BME280;36217;60.232;24.776;2022-10-28T02:47:10;101074.97;;;9.71;100.00
49779;BME280;36217;60.232;24.776;2022-10-28T02:49:42;101080.45;;;9.86;100.00
49779;BME280;36217;60.232;24.776;2022-10-28T02:52:11;101084.41;;;9.98;100.00
49779;BME280;36217;60.232;24.776;2022-10-28T02:54:41;101087.07;;;9.85;100.00
49779;BME280;36217;60.232;24.776;2022-10-28T02:57:13;101088.77;;;9.96;100.00
49779;BME280;36217;60.232;24.776;2022-10-28T02:59:41;101091.82;;;9.65;100.00
49779;BME280;36217;60.232;24.776;2022-10-28T03:02:08;101091.36;;;9.75;100.00
49779;BME280;36217;60.232;24.776;2022-10-28T03:04:35;101089.54;;;9.89;100.00
49779;BME280;36217;60.232;24.776;2022-10-28T03:07:02;101097.87;;;9.95;100.00
49779;BME280;36217;60.232;24.776;2022-10-28T03:09:29;101103.73;;;9.87;100.00
49779;BME280;36217;60.232;24.776;2022-10-28T03:11:56;101099.30;;;9.63;100.00
49779;BME280;36217;60.232;24.776;2022-10-28T03:14:23;101090.82;;;9.56;100.00
49779;BME280;36217;60.232;24.776;2022-10-28T03:16:50;101081.21;;;9.86;100.00
49779;BME280;36217;60.232;24.776;2022-10-28T03:19:17;101082.87;;;9.72;100.00
49779;BME280;36217;60.232;24.776;2022-10-28T03:21:44;101086.22;;;9.73;100.00
49779;BME280;36217;60.232;24.776;2022-10-28T03:24:10;101085.99;;;10.01;100.00
49779;BME280;36217;60.232;24.776;2022-10-28T03:26:37;101078.99;;;9.65;100.00
49779;BME280;36217;60.232;24.776;2022-10-28T03:29:04;101084.59;;;9.58;100.00
49779;BME280;36217;60.232;24.776;2022-10-28T03:31:31;101087.89;;;9.99;100.00
49779;BME280;36217;60.232;24.776;2022-10-28T03:33:58;101083.79;;;9.94;100.00
49779;BME280;36217;60.232;24.776;2022-10-28T03:36:25;101077.57;;;9.69;100.00
49779;BME280;36217;60.232;24.776;2022-10-28T03:38:51;101074.27;;;9.68;100.00
49779;BME280;36217;60.232;24.776;2022-10-28T03:41:19;101073.62;;;9.91;100.00
49779;BME280;36217;60.232;24.776;2022-10-28T03:43:45;101065.69;;;9.76;100.00
49779;BME280;36217;60.232;24.776;2022-10-28T03:46:12;101063.76;;;9.86;100.00
49779;BME280;36217;60.232;24.776;2022-10-28T03:48:39;101065.46;;;9.82;100.00
49779;BME280;36217;60.232;24.776;2022-10-28T03:51:06;101057.10;;;9.86;100.00
49779;BME280;36217;60.232;24.776;2022-10-28T03:53:33;101051.17;;;9.62;100.00
49779;BME280;36217;60.232;24.776;2022-10-28T03:56:01;101050.60;;;10.22;100.00
49779;BME280;36217;60.232;24.776;2022-10-28T03:58:28;101051.68;;;9.71;100.00
49779;BME280;36217;60.232;24.776;2022-10-28T04:00:55;101046.67;;;9.66;100.00
49779;BME280;36217;60.232;24.776;2022-10-28T04:03:23;101046.76;;;9.91;100.00
49779;BME280;36217;60.232;24.776;2022-10-28T04:05:51;101037.17;;;9.72;100.00
49779;BME280;36217;60.232;24.776;2022-10-28T04:08:18;101036.62;;;9.96;100.00
49779;BME280;36217;60.232;24.776;2022-10-28T04:10:46;101032.51;;;9.96;100.00
49779;BME280;36217;60.232;24.776;2022-10-28T04:13:20;101034.08;;;9.94;100.00
49779;BME280;36217;60.232;24.776;2022-10-28T04:15:46;101031.17;;;10.17;100.00
49779;BME280;36217;60.232;24.776;2022-10-28T04:18:13;101032.66;;;10.00;100.00
49779;BME280;36217;60.232;24.776;2022-10-28T04:20:40;101037.80;;;10.26;100.00
49779;BME280;36217;60.232;24.776;2022-10-28T04:23:08;101041.18;;;10.21;100.00
49779;BME280;36217;60.232;24.776;2022-10-28T04:25:40;101037.65;;;9.73;100.00
49779;BME280;36217;60.232;24.776;2022-10-28T04:28:07;101032.16;;;10.01;100.00
49779;BME280;36217;60.232;24.776;2022-10-28T04:30:34;101034.00;;;10.02;100.00
49779;BME280;36217;60.232;24.776;2022-10-28T04:33:01;101032.57;;;9.71;100.00
49779;BME280;36217;60.232;24.776;2022-10-28T04:35:27;101026.81;;;9.84;100.00
49779;BME280;36217;60.232;24.776;2022-10-28T04:37:54;101020.86;;;10.25;100.00
49779;BME280;36217;60.232;24.776;2022-10-28T04:40:21;101020.38;;;9.96;100.00
49779;BME280;36217;60.232;24.776;2022-10-28T04:42:48;101021.53;;;10.19;100.00
49779;BME280;36217;60.232;24.776;2022-10-28T04:45:16;101015.17;;;9.99;100.00
49779;BME280;36217;60.232;24.776;2022-10-28T04:47:43;101016.63;;;9.63;100.00
49779;BME280;36217;60.232;24.776;2022-10-28T04:50:10;101011.50;;;9.72;100.00
49779;BME280;36217;60.232;24.776;2022-10-28T04:52:37;101009.86;;;9.86;100.00
49779;BME280;36217;60.232;24.776;2022-10-28T04:55:04;101006.93;;;9.87;100.00
49779;BME280;36217;60.232;24.776;2022-10-28T04:57:31;101004.96;;;9.92;100.00
49779;BME280;36217;60.232;24.776;2022-10-28T04:59:58;101008.41;;;9.74;100.00
49779;BME280;36217;60.232;24.776;2022-10-28T05:02:25;101008.01;;;9.67;100.00
49779;BME280;36217;60.232;24.776;2022-10-28T05:04:52;101010.01;;;9.68;100.00
49779;BME280;36217;60.232;24.776;2022-10-28T05:07:20;101011.07;;;9.79;100.00
49779;BME280;36217;60.232;24.776;2022-10-28T05:09:47;101010.00;;;9.69;100.00
49779;BME280;36217;60.232;24.776;2022-10-28T05:12:14;101008.68;;;9.96;100.00
49779;BME280;36217;60.232;24.776;2022-10-28T05:14:41;101006.36;;;10.08;100.00
49779;BME280;36217;60.232;24.776;2022-10-28T05:17:09;101006.82;;;10.15;100.00
49779;BME280;36217;60.232;24.776;2022-10-28T05:19:42;101002.53;;;10.17;100.00
49779;BME280;36217;60.232;24.776;2022-10-28T05:22:09;100998.92;;;10.01;100.00
49779;BME280;36217;60.232;24.776;2022-10-28T05:24:36;101000.68;;;9.94;100.00
49779;BME280;36217;60.232;24.776;2022-10-28T05:27:03;101003.09;;;10.12;100.00
49779;BME280;36217;60.232;24.776;2022-10-28T05:29:30;100996.14;;;10.18;100.00
49779;BME280;36217;60.232;24.776;2022-10-28T05:31:59;100991.71;;;9.89;100.00
49779;BME280;36217;60.232;24.776;2022-10-28T05:34:26;100988.57;;;10.28;100.00
49779;BME280;36217;60.232;24.776;2022-10-28T05:36:52;100984.87;;;10.21;100.00
49779;BME280;36217;60.232;24.776;2022-10-28T05:39:19;100980.02;;;10.00;100.00
49779;BME280;36217;60.232;24.776;2022-10-28T05:41:46;100984.03;;;10.01;100.00
49779;BME280;36217;60.232;24.776;2022-10-28T05:44:14;100988.10;;;9.97;100.00
49779;BME280;36217;60.232;24.776;2022-10-28T05:46:40;100996.64;;;9.81;100.00
49779;BME280;36217;60.232;24.776;2022-10-28T05:49:07;100998.99;;;10.09;100.00
49779;BME280;36217;60.232;24.776;2022-10-28T05:51:34;101002.69;;;10.19;100.00
49779;BME280;36217;60.232;24.776;2022-10-28T05:54:01;100998.23;;;9.96;100.00
49779;BME280;36217;60.232;24.776;2022-10-28T05:56:29;101002.26;;;10.32;100.00
49779;BME280;36217;60.232;24.776;2022-10-28T05:58:56;101007.70;;;9.89;100.00
49779;BME280;36217;60.232;24.776;2022-10-28T06:01:23;101010.34;;;10.16;100.00
49779;BME280;36217;60.232;24.776;2022-10-28T06:03:55;101009.30;;;10.05;100.00
49779;BME280;36217;60.232;24.776;2022-10-28T06:06:22;101007.47;;;10.15;100.00
49779;BME280;36217;60.232;24.776;2022-10-28T06:08:49;101010.81;;;10.18;100.00
49779;BME280;36217;60.232;24.776;2022-10-28T06:11:16;101008.08;;;10.02;100.00
49779;BME280;36217;60.232;24.776;2022-10-28T06:13:42;101000.90;;;10.19;100.00
49779;BME280;36217;60.232;24.776;2022-10-28T06:16:10;101000.42;;;10.17;100.00
49779;BME280;36217;60.232;24.776;2022-10-28T06:18:37;100992.71;;;9.99;100.00
49779;BME280;36217;60.232;24.776;2022-10-28T06:21:05;100990.28;;;10.20;100.00
49779;BME280;36217;60.232;24.776;2022-10-28T06:23:32;100996.17;;;10.51;100.00
49779;BME280;36217;60.232;24.776;2022-10-28T06:26:00;100997.23;;;10.19;100.00
49779;BME280;36217;60.232;24.776;2022-10-28T06:28:28;100994.76;;;10.23;100.00
49779;BME280;36217;60.232;24.776;2022-10-28T06:31:00;100990.52;;;10.26;100.00
49779;BME280;36217;60.232;24.776;2022-10-28T06:33:33;100992.39;;;10.21;100.00
49779;BME280;36217;60.232;24.776;2022-10-28T06:36:01;100989.82;;;10.25;100.00
49779;BME280;36217;60.232;24.776;2022-10-28T06:38:28;100994.75;;;10.26;100.00
49779;BME280;36217;60.232;24.776;2022-10-28T06:40:56;100996.33;;;10.02;100.00
49779;BME280;36217;60.232;24.776;2022-10-28T06:43:24;100995.16;;;10.31;100.00
49779;BME280;36217;60.232;24.776;2022-10-28T06:45:51;100995.23;;;10.05;100.00
49779;BME280;36217;60.232;24.776;2022-10-28T06:48:18;100991.74;;;10.44;100.00
49779;BME280;36217;60.232;24.776;2022-10-28T06:50:45;100991.76;;;10.39;100.00
49779;BME280;36217;60.232;24.776;2022-10-28T06:53:16;100991.76;;;10.28;100.00
49779;BME280;36217;60.232;24.776;2022-10-28T06:55:51;100995.16;;;10.52;100.00
49779;BME280;36217;60.232;24.776;2022-10-28T06:58:18;100993.73;;;10.45;100.00
49779;BME280;36217;60.232;24.776;2022-10-28T07:00:45;100996.91;;;10.48;100.00
49779;BME280;36217;60.232;24.776;2022-10-28T07:03:13;100998.82;;;10.45;100.00
49779;BME280;36217;60.232;24.776;2022-10-28T07:05:40;101002.61;;;10.58;100.00
49779;BME280;36217;60.232;24.776;2022-10-28T07:08:08;101007.19;;;10.52;100.00
49779;BME280;36217;60.232;24.776;2022-10-28T07:10:35;101015.16;;;10.61;100.00
49779;BME280;36217;60.232;24.776;2022-10-28T07:13:03;101017.51;;;10.48;100.00
49779;BME280;36217;60.232;24.776;2022-10-28T07:15:30;101013.01;;;10.68;100.00
49779;BME280;36217;60.232;24.776;2022-10-28T07:17:58;101015.81;;;10.62;100.00
49779;BME280;36217;60.232;24.776;2022-10-28T07:20:26;101017.04;;;10.63;100.00
49779;BME280;36217;60.232;24.776;2022-10-28T07:22:55;101022.22;;;10.77;100.00
49779;BME280;36217;60.232;24.776;2022-10-28T07:25:22;101020.38;;;10.87;100.00
49779;BME280;36217;60.232;24.776;2022-10-28T07:27:48;101015.58;;;11.01;100.00
49779;BME280;36217;60.232;24.776;2022-10-28T07:30:16;101012.25;;;11.04;100.00
49779;BME280;36217;60.232;24.776;2022-10-28T07:32:43;101020.88;;;11.20;100.00
49779;BME280;36217;60.232;24.776;2022-10-28T07:35:09;101028.58;;;11.11;100.00
49779;BME280;36217;60.232;24.776;2022-10-28T07:37:37;101026.16;;;10.94;100.00
49779;BME280;36217;60.232;24.776;2022-10-28T07:40:05;101022.21;;;11.32;100.00
49779;BME280;36217;60.232;24.776;2022-10-28T07:42:32;101018.43;;;10.81;100.00
49779;BME280;36217;60.232;24.776;2022-10-28T07:44:59;101018.88;;;11.19;100.00
49779;BME280;36217;60.232;24.776;2022-10-28T07:47:27;101015.47;;;11.34;100.00
49779;BME280;36217;60.232;24.776;2022-10-28T07:49:54;101013.92;;;11.31;100.00
49779;BME280;36217;60.232;24.776;2022-10-28T07:52:21;101016.25;;;11.55;100.00
49779;BME280;36217;60.232;24.776;2022-10-28T07:54:49;101012.40;;;11.46;100.00
49779;BME280;36217;60.232;24.776;2022-10-28T07:57:16;101008.35;;;11.65;100.00
49779;BME280;36217;60.232;24.776;2022-10-28T07:59:42;101004.96;;;11.40;100.00
49779;BME280;36217;60.232;24.776;2022-10-28T08:02:14;100997.00;;;11.25;100.00
49779;BME280;36217;60.232;24.776;2022-10-28T08:04:43;100987.78;;;11.57;100.00
49779;BME280;36217;60.232;24.776;2022-10-28T08:07:11;100980.71;;;11.40;100.00
49779;BME280;36217;60.232;24.776;2022-10-28T08:09:37;100985.00;;;11.66;100.00
49779;BME280;36217;60.232;24.776;2022-10-28T08:12:05;100988.69;;;11.32;100.00
49779;BME280;36217;60.232;24.776;2022-10-28T08:14:33;100984.65;;;11.75;100.00
49779;BME280;36217;60.232;24.776;2022-10-28T08:17:00;100993.38;;;11.56;100.00
49779;BME280;36217;60.232;24.776;2022-10-28T08:19:27;100999.46;;;11.43;100.00
49779;BME280;36217;60.232;24.776;2022-10-28T08:21:59;100994.39;;;11.46;100.00
49779;BME280;36217;60.232;24.776;2022-10-28T08:24:26;100995.57;;;11.28;100.00
49779;BME280;36217;60.232;24.776;2022-10-28T08:26:53;100992.91;;;11.54;100.00
49779;BME280;36217;60.232;24.776;2022-10-28T08:29:20;100991.22;;;11.29;100.00
49779;BME280;36217;60.232;24.776;2022-10-28T08:31:47;100988.95;;;12.08;100.00
49779;BME280;36217;60.232;24.776;2022-10-28T08:34:14;100991.65;;;11.69;100.00
49779;BME280;36217;60.232;24.776;2022-10-28T08:36:41;100996.09;;;11.81;100.00
49779;BME280;36217;60.232;24.776;2022-10-28T08:39:08;100997.58;;;12.12;100.00
49779;BME280;36217;60.232;24.776;2022-10-28T08:41:37;100993.37;;;11.93;100.00
49779;BME280;36217;60.232;24.776;2022-10-28T08:44:23;100988.67;;;11.86;100.00
49779;BME280;36217;60.232;24.776;2022-10-28T08:47:06;100990.63;;;12.14;100.00
49779;BME280;36217;60.232;24.776;2022-10-28T08:49:37;100991.00;;;12.26;100.00
49779;BME280;36217;60.232;24.776;2022-10-28T08:52:19;100992.94;;;12.33;100.00
49779;BME280;36217;60.232;24.776;2022-10-28T08:54:52;100999.16;;;12.19;100.00
49779;BME280;36217;60.232;24.776;2022-10-28T08:57:24;100997.67;;;12.33;100.00
49779;BME280;36217;60.232;24.776;2022-10-28T08:59:56;100994.68;;;12.27;100.00
49779;BME280;36217;60.232;24.776;2022-10-28T09:02:25;100992.80;;;12.41;100.00
49779;BME280;36217;60.232;24.776;2022-10-28T09:04:58;100994.54;;;12.24;100.00
49779;BME280;36217;60.232;24.776;2022-10-28T09:07:27;100993.23;;;12.36;100.00
49779;BME280;36217;60.232;24.776;2022-10-28T09:09:56;100995.57;;;12.30;100.00
49779;BME280;36217;60.232;24.776;2022-10-28T09:12:33;100996.30;;;12.39;100.00
49779;BME280;36217;60.232;24.776;2022-10-28T09:15:16;100994.93;;;12.29;100.00
49779;BME280;36217;60.232;24.776;2022-10-28T09:17:51;100996.33;;;12.36;100.00
49779;BME280;36217;60.232;24.776;2022-10-28T09:20:22;100997.40;;;12.10;100.00
49779;BME280;36217;60.232;24.776;2022-10-28T09:22:56;100993.67;;;12.57;100.00
49779;BME280;36217;60.232;24.776;2022-10-28T09:25:30;100990.93;;;12.59;100.00
49779;BME280;36217;60.232;24.776;2022-10-28T09:28:08;100991.22;;;12.57;100.00
49779;BME280;36217;60.232;24.776;2022-10-28T09:30:55;100988.83;;;12.34;100.00
49779;BME280;36217;60.232;24.776;2022-10-28T09:33:39;100993.36;;;12.50;100.00
49779;BME280;36217;60.232;24.776;2022-10-28T09:36:12;100990.08;;;12.41;100.00
49779;BME280;36217;60.232;24.776;2022-10-28T09:38:41;100988.63;;;12.51;100.00
49779;BME280;36217;60.232;24.776;2022-10-28T09:41:13;100990.00;;;12.27;100.00
49779;BME280;36217;60.232;24.776;2022-10-28T09:43:45;100986.45;;;12.44;100.00
49779;BME280;36217;60.232;24.776;2022-10-28T09:46:15;100985.23;;;12.36;100.00
49779;BME280;36217;60.232;24.776;2022-10-28T09:48:45;100984.84;;;12.60;100.00
49779;BME280;36217;60.232;24.776;2022-10-28T09:51:23;100980.65;;;12.54;100.00
49779;BME280;36217;60.232;24.776;2022-10-28T09:53:56;100984.67;;;12.70;100.00
49779;BME280;36217;60.232;24.776;2022-10-28T09:56:24;100980.74;;;12.76;100.00
49779;BME280;36217;60.232;24.776;2022-10-28T09:58:53;100968.93;;;12.60;100.00
49779;BME280;36217;60.232;24.776;2022-10-28T10:01:22;100963.31;;;12.98;100.00
49779;BME280;36217;60.232;24.776;2022-10-28T10:03:54;100962.25;;;12.74;100.00
49779;BME280;36217;60.232;24.776;2022-10-28T10:06:26;100958.52;;;12.99;100.00
49779;BME280;36217;60.232;24.776;2022-10-28T10:08:55;100951.87;;;13.05;100.00
49779;BME280;36217;60.232;24.776;2022-10-28T10:11:28;100948.77;;;13.09;100.00
49779;BME280;36217;60.232;24.776;2022-10-28T10:14:01;100952.14;;;12.87;100.00
49779;BME280;36217;60.232;24.776;2022-10-28T10:16:37;100943.50;;;13.00;100.00
49779;BME280;36217;60.232;24.776;2022-10-28T10:19:07;100939.29;;;12.84;100.00
49779;BME280;36217;60.232;24.776;2022-10-28T10:21:44;100933.08;;;12.94;100.00
49779;BME280;36217;60.232;24.776;2022-10-28T10:24:44;100930.41;;;12.99;100.00
49779;BME280;36217;60.232;24.776;2022-10-28T10:27:16;100932.41;;;13.17;100.00
49779;BME280;36217;60.232;24.776;2022-10-28T10:29:45;100938.60;;;13.01;100.00
49779;BME280;36217;60.232;24.776;2022-10-28T10:32:16;100941.94;;;13.16;100.00
49779;BME280;36217;60.232;24.776;2022-10-28T10:34:51;100937.54;;;13.07;100.00
49779;BME280;36217;60.232;24.776;2022-10-28T10:37:21;100930.50;;;13.17;100.00
49779;BME280;36217;60.232;24.776;2022-10-28T10:40:24;100933.02;;;13.11;100.00
49779;BME280;36217;60.232;24.776;2022-10-28T10:42:52;100930.85;;;13.36;100.00
49779;BME280;36217;60.232;24.776;2022-10-28T10:45:22;100935.00;;;13.48;100.00
49779;BME280;36217;60.232;24.776;2022-10-28T10:48:06;100927.34;;;13.36;100.00
49779;BME280;36217;60.232;24.776;2022-10-28T10:50:33;100914.03;;;13.69;100.00
49779;BME280;36217;60.232;24.776;2022-10-28T10:53:00;100910.76;;;13.59;100.00
49779;BME280;36217;60.232;24.776;2022-10-28T10:55:32;100910.64;;;13.70;100.00
49779;BME280;36217;60.232;24.776;2022-10-28T10:58:00;100912.96;;;13.68;100.00
49779;BME280;36217;60.232;24.776;2022-10-28T11:00:31;100910.56;;;13.64;100.00
49779;BME280;36217;60.232;24.776;2022-10-28T11:03:03;100907.38;;;13.73;100.00
49779;BME280;36217;60.232;24.776;2022-10-28T11:05:31;100904.42;;;13.64;100.00
49779;BME280;36217;60.232;24.776;2022-10-28T11:07:59;100912.30;;;13.49;100.00
49779;BME280;36217;60.232;24.776;2022-10-28T11:10:29;100918.68;;;13.45;100.00
49779;BME280;36217;60.232;24.776;2022-10-28T11:12:58;100918.52;;;13.44;100.00
49779;BME280;36217;60.232;24.776;2022-10-28T11:15:28;100917.94;;;13.35;100.00
49779;BME280;36217;60.232;24.776;2022-10-28T11:17:59;100915.61;;;13.39;100.00
49779;BME280;36217;60.232;24.776;2022-10-28T11:20:29;100918.95;;;13.29;100.00
49779;BME280;36217;60.232;24.776;2022-10-28T11:23:13;100917.08;;;13.43;100.00
49779;BME280;36217;60.232;24.776;2022-10-28T11:25:44;100922.47;;;13.92;100.00
49779;BME280;36217;60.232;24.776;2022-10-28T11:28:26;100916.72;;;13.41;100.00
49779;BME280;36217;60.232;24.776;2022-10-28T11:31:08;100913.11;;;12.94;100.00
49779;BME280;36217;60.232;24.776;2022-10-28T11:33:43;100915.65;;;13.01;100.00
49779;BME280;36217;60.232;24.776;2022-10-28T11:36:17;100907.49;;;13.10;100.00
49779;BME280;36217;60.232;24.776;2022-10-28T11:39:00;100909.13;;;12.79;100.00
49779;BME280;36217;60.232;24.776;2022-10-28T11:41:43;100911.14;;;12.56;100.00
49779;BME280;36217;60.232;24.776;2022-10-28T11:44:22;100911.24;;;12.61;100.00
49779;BME280;36217;60.232;24.776;2022-10-28T11:46:59;100911.67;;;12.12;100.00
49779;BME280;36217;60.232;24.776;2022-10-28T11:49:45;100913.52;;;12.16;100.00
49779;BME280;36217;60.232;24.776;2022-10-28T11:52:30;100922.34;;;12.27;100.00
49779;BME280;36217;60.232;24.776;2022-10-28T11:55:10;100921.52;;;12.50;100.00
49779;BME280;36217;60.232;24.776;2022-10-28T11:57:49;100924.86;;;11.94;100.00
49779;BME280;36217;60.232;24.776;2022-10-28T12:00:31;100919.73;;;11.81;100.00
49779;BME280;36217;60.232;24.776;2022-10-28T12:03:15;100920.08;;;12.33;100.00
49779;BME280;36217;60.232;24.776;2022-10-28T12:05:50;100913.39;;;11.91;100.00
49779;BME280;36217;60.232;24.776;2022-10-28T12:08:32;100915.00;;;11.71;100.00
49779;BME280;36217;60.232;24.776;2022-10-28T12:11:13;100903.64;;;12.06;100.00
49779;BME280;36217;60.232;24.776;2022-10-28T12:13:53;100902.06;;;11.83;100.00
49779;BME280;36217;60.232;24.776;2022-10-28T12:16:33;100895.48;;;12.02;100.00
49779;BME280;36217;60.232;24.776;2022-10-28T12:19:10;100890.89;;;11.65;100.00
49779;BME280;36217;60.232;24.776;2022-10-28T12:21:42;100886.37;;;11.73;100.00
49779;BME280;36217;60.232;24.776;2022-10-28T12:24:14;100882.08;;;11.95;100.00
49779;BME280;36217;60.232;24.776;2022-10-28T12:26:46;100885.49;;;11.52;100.00
49779;BME280;36217;60.232;24.776;2022-10-28T12:29:18;100874.99;;;11.98;100.00
49779;BME280;36217;60.232;24.776;2022-10-28T12:31:49;100871.75;;;12.01;100.00
49779;BME280;36217;60.232;24.776;2022-10-28T12:34:23;100875.91;;;11.93;100.00
49779;BME280;36217;60.232;24.776;2022-10-28T12:36:58;100868.27;;;12.02;100.00
49779;BME280;36217;60.232;24.776;2022-10-28T12:39:32;100866.61;;;12.00;100.00
49779;BME280;36217;60.232;24.776;2022-10-28T12:42:03;100865.55;;;11.64;100.00
49779;BME280;36217;60.232;24.776;2022-10-28T12:44:32;100865.73;;;11.91;100.00
49779;BME280;36217;60.232;24.776;2022-10-28T12:47:11;100867.09;;;11.73;100.00
49779;BME280;36217;60.232;24.776;2022-10-28T12:49:49;100862.23;;;11.87;100.00
49779;BME280;36217;60.232;24.776;2022-10-28T12:52:29;100865.45;;;11.64;100.00
49779;BME280;36217;60.232;24.776;2022-10-28T12:55:04;100869.90;;;11.81;100.00